sensor_id;sensor_type;location;lat;lon;timestamp;pressure;altitude;pressure_sealevel;temperature;humidity
1652;BME280;823;49.028;8.454;2022-12-04T00:01:25;100237.03;;;6.22;56.45
1652;BME280;823;49.028;8.454;2022-12-04T00:06:27;100226.53;;;6.33;56.38
1652;BME280;823;49.028;8.454;2022-12-04T00:11:29;100216.06;;;6.43;56.07
1652;BME280;823;49.028;8.454;2022-12-04T00:16:30;100212.50;;;6.51;56.01
1652;BME280;823;49.028;8.454;2022-12-04T00:21:30;100215.94;;;6.51;56.34
1652;BME280;823;49.028;8.454;2022-12-04T00:26:31;100209.13;;;6.48;56.24
1652;BME280;823;49.028;8.454;2022-12-04T00:31:31;100232.97;;;6.57;56.13
1652;BME280;823;49.028;8.454;2022-12-04T00:36:32;100214.16;;;6.55;56.13
1652;BME280;823;49.028;8.454;2022-12-04T00:41:32;100206.94;;;6.28;56.67
1652;BME280;823;49.028;8.454;2022-12-04T00:46:33;100216.09;;;6.42;56.60
1652;BME280;823;49.028;8.454;2022-12-04T00:51:33;100198.50;;;6.22;56.79
1652;BME280;823;49.028;8.454;2022-12-04T00:56:33;100202.41;;;6.43;56.31
1652;BME280;823;49.028;8.454;2022-12-04T01:01:34;100201.56;;;6.41;56.55
1652;BME280;823;49.028;8.454;2022-12-04T01:06:34;100212.00;;;6.33;56.54
1652;BME280;823;49.028;8.454;2022-12-04T01:11:35;100217.19;;;6.28;56.67
1652;BME280;823;49.028;8.454;2022-12-04T01:16:38;100218.91;;;6.29;56.62
1652;BME280;823;49.028;8.454;2022-12-04T01:21:39;100210.97;;;6.42;56.44
1652;BME280;823;49.028;8.454;2022-12-04T01:26:39;100218.00;;;6.32;56.39
1652;BME280;823;49.028;8.454;2022-12-04T01:31:39;100206.59;;;6.47;56.31
1652;BME280;823;49.028;8.454;2022-12-04T01:36:40;100205.13;;;6.34;56.42
1652;BME280;823;49.028;8.454;2022-12-04T01:41:40;100213.66;;;6.36;56.43
1652;BME280;823;49.028;8.454;2022-12-04T01:46:45;100204.44;;;6.24;56.56
1652;BME280;823;49.028;8.454;2022-12-04T01:51:51;100214.69;;;6.25;56.66
1652;BME280;823;49.028;8.454;2022-12-04T01:57:01;100201.78;;;6.28;56.53
1652;BME280;823;49.028;8.454;2022-12-04T02:02:08;100216.22;;;6.37;56.14
1652;BME280;823;49.028;8.454;2022-12-04T02:07:09;100214.50;;;6.36;56.35
1652;BME280;823;49.028;8.454;2022-12-04T02:12:23;100202.31;;;6.47;56.14
1652;BME280;823;49.028;8.454;2022-12-04T02:17:35;100215.34;;;6.37;56.27
1652;BME280;823;49.028;8.454;2022-12-04T02:28:25;100212.81;;;6.35;56.16
1652;BME280;823;49.028;8.454;2022-12-04T02:33:53;100204.84;;;6.49;55.99
1652;BME280;823;49.028;8.454;2022-12-04T02:39:08;100199.97;;;6.35;56.12
1652;BME280;823;49.028;8.454;2022-12-04T02:44:21;100199.94;;;6.37;56.27
1652;BME280;823;49.028;8.454;2022-12-04T02:49:36;100187.91;;;6.39;56.21
1652;BME280;823;49.028;8.454;2022-12-04T02:54:42;100196.56;;;6.35;56.53
1652;BME280;823;49.028;8.454;2022-12-04T02:59:46;100191.47;;;6.32;56.34
1652;BME280;823;49.028;8.454;2022-12-04T03:04:50;100190.44;;;6.40;56.11
1652;BME280;823;49.028;8.454;2022-12-04T03:09:56;100181.91;;;6.40;56.10
1652;BME280;823;49.028;8.454;2022-12-04T03:15:08;100176.50;;;6.54;55.53
1652;BME280;823;49.028;8.454;2022-12-04T03:20:11;100172.34;;;6.48;55.62
1652;BME280;823;49.028;8.454;2022-12-04T03:25:14;100179.19;;;6.47;55.65
1652;BME280;823;49.028;8.454;2022-12-04T03:30:17;100175.56;;;6.58;55.37
1652;BME280;823;49.028;8.454;2022-12-04T03:35:26;100167.16;;;6.50;55.54
1652;BME280;823;49.028;8.454;2022-12-04T03:40:44;100169.00;;;6.43;55.50
1652;BME280;823;49.028;8.454;2022-12-04T03:45:56;100163.94;;;6.38;55.85
1652;BME280;823;49.028;8.454;2022-12-04T03:51:07;100155.38;;;6.38;55.50
1652;BME280;823;49.028;8.454;2022-12-04T03:56:13;100156.63;;;6.18;55.98
1652;BME280;823;49.028;8.454;2022-12-04T04:01:19;100153.47;;;6.47;55.14
1652;BME280;823;49.028;8.454;2022-12-04T04:06:29;100151.78;;;6.48;55.19
1652;BME280;823;49.028;8.454;2022-12-04T04:16:50;100162.91;;;6.48;55.63
1652;BME280;823;49.028;8.454;2022-12-04T04:22:12;100152.63;;;6.48;55.69
1652;BME280;823;49.028;8.454;2022-12-04T04:27:32;100168.69;;;6.58;55.66
1652;BME280;823;49.028;8.454;2022-12-04T04:33:10;100163.34;;;6.69;55.28
1652;BME280;823;49.028;8.454;2022-12-04T04:43:37;100166.75;;;6.70;55.23
1652;BME280;823;49.028;8.454;2022-12-04T04:48:46;100168.56;;;6.64;55.61
1652;BME280;823;49.028;8.454;2022-12-04T04:53:50;100172.03;;;6.63;55.94
1652;BME280;823;49.028;8.454;2022-12-04T04:58:51;100163.31;;;6.71;55.52
1652;BME280;823;49.028;8.454;2022-12-04T05:03:52;100173.69;;;6.64;55.64
1652;BME280;823;49.028;8.454;2022-12-04T05:08:52;100172.75;;;6.70;55.50
1652;BME280;823;49.028;8.454;2022-12-04T05:13:52;100171.97;;;6.67;55.89
1652;BME280;823;49.028;8.454;2022-12-04T05:18:53;100175.16;;;6.78;55.78
1652;BME280;823;49.028;8.454;2022-12-04T05:24:11;100178.66;;;6.74;55.75
1652;BME280;823;49.028;8.454;2022-12-04T05:29:12;100179.41;;;6.79;55.79
1652;BME280;823;49.028;8.454;2022-12-04T05:34:12;100178.53;;;6.80;55.45
1652;BME280;823;49.028;8.454;2022-12-04T05:39:12;100178.78;;;6.68;55.92
1652;BME280;823;49.028;8.454;2022-12-04T05:44:13;100183.63;;;6.83;55.33
1652;BME280;823;49.028;8.454;2022-12-04T05:49:13;100182.63;;;6.89;55.57
1652;BME280;823;49.028;8.454;2022-12-04T05:54:13;100177.72;;;6.78;55.90
1652;BME280;823;49.028;8.454;2022-12-04T05:59:14;100179.34;;;6.82;55.71
1652;BME280;823;49.028;8.454;2022-12-04T06:04:14;100164.78;;;6.81;55.67
1652;BME280;823;49.028;8.454;2022-12-04T06:09:15;100169.00;;;6.85;55.61
1652;BME280;823;49.028;8.454;2022-12-04T06:14:15;100168.31;;;6.77;55.88
1652;BME280;823;49.028;8.454;2022-12-04T06:19:18;100177.75;;;6.76;56.09
1652;BME280;823;49.028;8.454;2022-12-04T06:24:22;100172.66;;;6.75;56.09
1652;BME280;823;49.028;8.454;2022-12-04T06:29:22;100169.94;;;6.81;55.87
1652;BME280;823;49.028;8.454;2022-12-04T06:34:23;100183.72;;;6.77;56.18
1652;BME280;823;49.028;8.454;2022-12-04T06:39:23;100182.88;;;6.76;56.24
1652;BME280;823;49.028;8.454;2022-12-04T06:44:24;100192.88;;;6.90;55.90
1652;BME280;823;49.028;8.454;2022-12-04T06:49:24;100185.53;;;6.73;56.20
1652;BME280;823;49.028;8.454;2022-12-04T06:54:25;100184.22;;;6.94;55.94
1652;BME280;823;49.028;8.454;2022-12-04T06:59:25;100188.63;;;6.89;56.03
1652;BME280;823;49.028;8.454;2022-12-04T07:04:27;100184.22;;;6.94;56.03
1652;BME280;823;49.028;8.454;2022-12-04T07:09:27;100184.13;;;6.99;55.94
1652;BME280;823;49.028;8.454;2022-12-04T07:14:27;100189.91;;;7.09;55.82
1652;BME280;823;49.028;8.454;2022-12-04T07:19:27;100186.47;;;7.10;55.99
1652;BME280;823;49.028;8.454;2022-12-04T07:24:28;100183.91;;;7.10;55.99
1652;BME280;823;49.028;8.454;2022-12-04T07:29:28;100181.25;;;7.13;55.79
1652;BME280;823;49.028;8.454;2022-12-04T07:34:28;100177.88;;;7.11;56.00
1652;BME280;823;49.028;8.454;2022-12-04T07:39:29;100184.69;;;7.13;55.88
1652;BME280;823;49.028;8.454;2022-12-04T07:44:30;100193.16;;;7.17;55.85
1652;BME280;823;49.028;8.454;2022-12-04T07:49:31;100184.75;;;7.09;55.84
1652;BME280;823;49.028;8.454;2022-12-04T07:54:31;100191.50;;;7.16;56.10
1652;BME280;823;49.028;8.454;2022-12-04T07:59:31;100189.75;;;7.16;56.13
1652;BME280;823;49.028;8.454;2022-12-04T08:04:32;100194.97;;;7.13;56.21
1652;BME280;823;49.028;8.454;2022-12-04T08:09:32;100196.72;;;7.11;55.97
1652;BME280;823;49.028;8.454;2022-12-04T08:14:32;100183.47;;;6.89;56.64
1652;BME280;823;49.028;8.454;2022-12-04T08:19:33;100187.25;;;7.13;55.87
1652;BME280;823;49.028;8.454;2022-12-04T08:24:34;100188.91;;;7.16;56.25
1652;BME280;823;49.028;8.454;2022-12-04T08:29:35;100182.75;;;7.23;56.07
1652;BME280;823;49.028;8.454;2022-12-04T08:34:35;100185.44;;;7.17;56.22
1652;BME280;823;49.028;8.454;2022-12-04T08:39:36;100174.91;;;7.28;55.91
1652;BME280;823;49.028;8.454;2022-12-04T08:44:36;100174.09;;;7.27;55.92
1652;BME280;823;49.028;8.454;2022-12-04T08:49:36;100179.94;;;7.34;55.86
1652;BME280;823;49.028;8.454;2022-12-04T08:54:37;100189.31;;;7.37;55.78
1652;BME280;823;49.028;8.454;2022-12-04T08:59:37;100192.84;;;7.32;56.02
1652;BME280;823;49.028;8.454;2022-12-04T09:04:38;100189.38;;;7.33;55.79
1652;BME280;823;49.028;8.454;2022-12-04T09:09:38;100204.19;;;7.22;56.08
1652;BME280;823;49.028;8.454;2022-12-04T09:14:39;100217.75;;;7.30;56.32
1652;BME280;823;49.028;8.454;2022-12-04T09:19:39;100224.59;;;7.31;55.98
1652;BME280;823;49.028;8.454;2022-12-04T09:24:39;100213.47;;;7.29;56.08
1652;BME280;823;49.028;8.454;2022-12-04T09:29:40;100209.75;;;7.43;55.59
1652;BME280;823;49.028;8.454;2022-12-04T09:34:40;100217.66;;;7.33;56.28
1652;BME280;823;49.028;8.454;2022-12-04T09:39:40;100208.13;;;7.39;55.96
1652;BME280;823;49.028;8.454;2022-12-04T09:45:07;100197.34;;;7.21;56.20
1652;BME280;823;49.028;8.454;2022-12-04T09:55:14;100190.28;;;7.32;56.25
1652;BME280;823;49.028;8.454;2022-12-04T10:00:18;100177.31;;;7.36;55.96
1652;BME280;823;49.028;8.454;2022-12-04T10:05:49;100163.94;;;7.20;56.48
1652;BME280;823;49.028;8.454;2022-12-04T10:16:47;100158.44;;;7.37;55.96
1652;BME280;823;49.028;8.454;2022-12-04T10:22:09;100153.31;;;7.35;56.01
1652;BME280;823;49.028;8.454;2022-12-04T10:32:27;100137.13;;;7.31;55.83
1652;BME280;823;49.028;8.454;2022-12-04T10:37:33;100129.47;;;7.27;56.35
1652;BME280;823;49.028;8.454;2022-12-04T10:42:48;100133.34;;;7.46;56.17
1652;BME280;823;49.028;8.454;2022-12-04T10:47:52;100129.91;;;7.46;55.78
1652;BME280;823;49.028;8.454;2022-12-04T10:52:53;100123.22;;;7.39;56.10
1652;BME280;823;49.028;8.454;2022-12-04T10:57:53;100124.72;;;7.47;55.98
1652;BME280;823;49.028;8.454;2022-12-04T11:02:55;100134.97;;;7.50;55.96
1652;BME280;823;49.028;8.454;2022-12-04T11:07:57;100127.97;;;7.54;55.83
1652;BME280;823;49.028;8.454;2022-12-04T11:13:02;100127.94;;;7.56;55.83
1652;BME280;823;49.028;8.454;2022-12-04T11:18:16;100135.56;;;7.60;55.44
1652;BME280;823;49.028;8.454;2022-12-04T11:23:17;100132.09;;;7.63;55.42
1652;BME280;823;49.028;8.454;2022-12-04T11:28:21;100145.69;;;7.66;55.38
1652;BME280;823;49.028;8.454;2022-12-04T11:33:33;100156.81;;;7.69;55.18
1652;BME280;823;49.028;8.454;2022-12-04T11:38:36;100161.97;;;7.69;55.18
1652;BME280;823;49.028;8.454;2022-12-04T11:43:47;100158.03;;;7.54;55.50
1652;BME280;823;49.028;8.454;2022-12-04T11:48:48;100148.34;;;7.63;55.54
1652;BME280;823;49.028;8.454;2022-12-04T12:10:18;100146.28;;;7.78;55.18
1652;BME280;823;49.028;8.454;2022-12-04T12:20:36;100130.91;;;7.75;55.28
1652;BME280;823;49.028;8.454;2022-12-04T12:25:54;100116.28;;;7.77;55.59
1652;BME280;823;49.028;8.454;2022-12-04T12:31:04;100115.31;;;7.81;55.34
1652;BME280;823;49.028;8.454;2022-12-04T12:36:12;100115.09;;;7.89;55.15
1652;BME280;823;49.028;8.454;2022-12-04T12:41:16;100114.28;;;7.88;55.28
1652;BME280;823;49.028;8.454;2022-12-04T12:46:27;100108.38;;;7.83;55.20
1652;BME280;823;49.028;8.454;2022-12-04T12:51:40;100105.06;;;7.78;55.59
1652;BME280;823;49.028;8.454;2022-12-04T12:56:48;100102.50;;;7.78;55.81
1652;BME280;823;49.028;8.454;2022-12-04T13:02:03;100090.63;;;7.72;55.80
1652;BME280;823;49.028;8.454;2022-12-04T13:12:17;100082.31;;;7.62;57.08
1652;BME280;823;49.028;8.454;2022-12-04T13:17:34;100080.94;;;7.49;57.62
1652;BME280;823;49.028;8.454;2022-12-04T13:23:04;100078.41;;;7.47;58.20
1652;BME280;823;49.028;8.454;2022-12-04T13:28:25;100068.22;;;7.43;58.67
1652;BME280;823;49.028;8.454;2022-12-04T13:44:20;100070.88;;;7.40;59.86
1652;BME280;823;49.028;8.454;2022-12-04T13:49:28;100070.88;;;7.40;60.09
1652;BME280;823;49.028;8.454;2022-12-04T13:54:33;100069.16;;;7.40;60.64
1652;BME280;823;49.028;8.454;2022-12-04T13:59:37;100084.53;;;7.42;60.98
1652;BME280;823;49.028;8.454;2022-12-04T14:04:50;100089.69;;;7.42;60.37
1652;BME280;823;49.028;8.454;2022-12-04T14:09:53;100096.69;;;7.37;61.04
1652;BME280;823;49.028;8.454;2022-12-04T14:14:57;100100.91;;;7.39;61.29
1652;BME280;823;49.028;8.454;2022-12-04T14:20:28;100111.09;;;7.44;60.96
1652;BME280;823;49.028;8.454;2022-12-04T14:25:35;100103.66;;;7.31;61.40
1652;BME280;823;49.028;8.454;2022-12-04T14:30:37;100097.03;;;7.23;62.12
1652;BME280;823;49.028;8.454;2022-12-04T14:35:56;100103.13;;;7.19;62.23
1652;BME280;823;49.028;8.454;2022-12-04T14:40:58;100101.53;;;7.13;62.56
1652;BME280;823;49.028;8.454;2022-12-04T14:46:11;100100.72;;;7.11;62.80
1652;BME280;823;49.028;8.454;2022-12-04T14:51:30;100102.63;;;7.03;62.98
1652;BME280;823;49.028;8.454;2022-12-04T15:02:00;100097.69;;;6.93;63.31
1652;BME280;823;49.028;8.454;2022-12-04T15:07:01;100092.34;;;7.03;62.94
1652;BME280;823;49.028;8.454;2022-12-04T15:12:15;100088.31;;;6.91;63.36
1652;BME280;823;49.028;8.454;2022-12-04T15:17:33;100076.56;;;6.80;63.59
1652;BME280;823;49.028;8.454;2022-12-04T15:22:34;100075.28;;;6.61;64.28
1652;BME280;823;49.028;8.454;2022-12-04T15:27:34;100059.78;;;6.64;64.05
1652;BME280;823;49.028;8.454;2022-12-04T15:32:35;100052.91;;;6.64;64.10
1652;BME280;823;49.028;8.454;2022-12-04T15:37:35;100060.63;;;6.64;64.15
1652;BME280;823;49.028;8.454;2022-12-04T15:42:36;100069.16;;;6.67;64.02
1652;BME280;823;49.028;8.454;2022-12-04T15:47:51;100098.97;;;6.74;63.92
1652;BME280;823;49.028;8.454;2022-12-04T15:58:15;100131.53;;;6.75;64.21
1652;BME280;823;49.028;8.454;2022-12-04T16:03:22;100131.34;;;6.82;64.00
1652;BME280;823;49.028;8.454;2022-12-04T16:08:28;100131.25;;;6.87;64.01
1652;BME280;823;49.028;8.454;2022-12-04T16:13:35;100123.63;;;6.82;64.09
1652;BME280;823;49.028;8.454;2022-12-04T16:18:37;100122.75;;;6.84;63.98
1652;BME280;823;49.028;8.454;2022-12-04T16:23:37;100109.06;;;6.83;64.01
1652;BME280;823;49.028;8.454;2022-12-04T16:28:38;100104.56;;;6.93;63.92
1652;BME280;823;49.028;8.454;2022-12-04T16:33:39;100093.56;;;6.86;64.02
1652;BME280;823;49.028;8.454;2022-12-04T16:38:39;100091.81;;;6.88;63.86
1652;BME280;823;49.028;8.454;2022-12-04T16:43:40;100092.50;;;6.95;64.16
1652;BME280;823;49.028;8.454;2022-12-04T16:48:41;100087.56;;;6.87;64.52
1652;BME280;823;49.028;8.454;2022-12-04T16:53:42;100086.72;;;6.85;64.11
1652;BME280;823;49.028;8.454;2022-12-04T16:58:42;100074.75;;;6.86;64.29
1652;BME280;823;49.028;8.454;2022-12-04T17:03:43;100071.22;;;6.90;64.30
1652;BME280;823;49.028;8.454;2022-12-04T17:08:43;100079.84;;;6.87;64.62
1652;BME280;823;49.028;8.454;2022-12-04T17:13:44;100082.34;;;6.90;64.45
1652;BME280;823;49.028;8.454;2022-12-04T17:18:44;100088.97;;;6.99;64.21
1652;BME280;823;49.028;8.454;2022-12-04T17:23:45;100091.72;;;6.93;64.41
1652;BME280;823;49.028;8.454;2022-12-04T17:28:48;100095.16;;;6.92;64.87
1652;BME280;823;49.028;8.454;2022-12-04T17:33:49;100095.19;;;6.90;64.67
1652;BME280;823;49.028;8.454;2022-12-04T17:38:57;100099.78;;;6.77;64.94
1652;BME280;823;49.028;8.454;2022-12-04T17:43:58;100090.16;;;6.86;64.79
1652;BME280;823;49.028;8.454;2022-12-04T17:48:59;100093.44;;;6.92;64.86
1652;BME280;823;49.028;8.454;2022-12-04T17:53:59;100090.59;;;7.03;64.51
1652;BME280;823;49.028;8.454;2022-12-04T17:59:00;100101.84;;;7.01;64.79
1652;BME280;823;49.028;8.454;2022-12-04T18:04:03;100107.03;;;6.97;64.73
1652;BME280;823;49.028;8.454;2022-12-04T18:09:06;100117.22;;;7.02;64.74
1652;BME280;823;49.028;8.454;2022-12-04T18:14:12;100123.91;;;7.09;64.33
1652;BME280;823;49.028;8.454;2022-12-04T18:19:13;100125.63;;;7.09;64.17
1652;BME280;823;49.028;8.454;2022-12-04T18:24:14;100128.13;;;7.12;64.34
1652;BME280;823;49.028;8.454;2022-12-04T18:29:18;100123.78;;;7.14;64.50
1652;BME280;823;49.028;8.454;2022-12-04T18:34:19;100118.59;;;7.15;64.30
1652;BME280;823;49.028;8.454;2022-12-04T18:39:22;100110.84;;;7.17;64.39
1652;BME280;823;49.028;8.454;2022-12-04T18:44:23;100111.72;;;7.18;64.40
1652;BME280;823;49.028;8.454;2022-12-04T18:49:23;100115.09;;;7.20;64.31
1652;BME280;823;49.028;8.454;2022-12-04T18:54:23;100118.56;;;7.19;64.20
1652;BME280;823;49.028;8.454;2022-12-04T18:59:25;100129.69;;;7.19;64.39
1652;BME280;823;49.028;8.454;2022-12-04T19:04:26;100134.91;;;7.16;64.48
1652;BME280;823;49.028;8.454;2022-12-04T19:09:27;100137.38;;;7.21;64.37
1652;BME280;823;49.028;8.454;2022-12-04T19:14:27;100139.94;;;7.21;64.28
1652;BME280;823;49.028;8.454;2022-12-04T19:19:29;100149.34;;;7.22;64.37
1652;BME280;823;49.028;8.454;2022-12-04T19:24:29;100144.31;;;7.15;64.57
1652;BME280;823;49.028;8.454;2022-12-04T19:29:29;100154.66;;;7.14;64.43
1652;BME280;823;49.028;8.454;2022-12-04T19:34:30;100171.91;;;7.09;64.89
1652;BME280;823;49.028;8.454;2022-12-04T19:39:30;100165.81;;;7.14;64.73
1652;BME280;823;49.028;8.454;2022-12-04T19:44:30;100173.41;;;7.19;64.83
1652;BME280;823;49.028;8.454;2022-12-04T19:49:31;100180.09;;;7.26;64.55
1652;BME280;823;49.028;8.454;2022-12-04T19:54:31;100189.59;;;7.24;64.77
1652;BME280;823;49.028;8.454;2022-12-04T19:59:32;100177.53;;;7.26;64.73
1652;BME280;823;49.028;8.454;2022-12-04T20:04:32;100184.66;;;7.15;64.99
1652;BME280;823;49.028;8.454;2022-12-04T20:09:32;100190.63;;;7.15;64.98
1652;BME280;823;49.028;8.454;2022-12-04T20:14:33;100195.72;;;7.17;64.81
1652;BME280;823;49.028;8.454;2022-12-04T20:19:33;100187.16;;;7.18;64.95
1652;BME280;823;49.028;8.454;2022-12-04T20:24:34;100188.06;;;7.15;65.15
1652;BME280;823;49.028;8.454;2022-12-04T20:29:34;100189.75;;;7.16;65.08
1652;BME280;823;49.028;8.454;2022-12-04T20:34:34;100194.78;;;7.21;65.31
1652;BME280;823;49.028;8.454;2022-12-04T20:39:36;100192.22;;;7.21;65.11
1652;BME280;823;49.028;8.454;2022-12-04T20:44:36;100193.88;;;7.24;64.92
1652;BME280;823;49.028;8.454;2022-12-04T20:49:37;100191.34;;;7.22;64.93
1652;BME280;823;49.028;8.454;2022-12-04T20:54:37;100198.19;;;7.23;65.19
1652;BME280;823;49.028;8.454;2022-12-04T20:59:38;100191.38;;;7.21;65.00
1652;BME280;823;49.028;8.454;2022-12-04T21:04:38;100198.25;;;7.20;64.71
1652;BME280;823;49.028;8.454;2022-12-04T21:09:39;100196.47;;;7.22;65.01
1652;BME280;823;49.028;8.454;2022-12-04T21:14:39;100196.41;;;7.25;64.92
1652;BME280;823;49.028;8.454;2022-12-04T21:19:58;100191.22;;;7.27;65.04
1652;BME280;823;49.028;8.454;2022-12-04T21:24:58;100202.38;;;7.27;64.47
1652;BME280;823;49.028;8.454;2022-12-04T21:29:59;100204.88;;;7.30;64.79
1652;BME280;823;49.028;8.454;2022-12-04T21:34:59;100201.47;;;7.30;65.08
1652;BME280;823;49.028;8.454;2022-12-04T21:40:00;100203.13;;;7.31;65.13
1652;BME280;823;49.028;8.454;2022-12-04T21:45:03;100210.03;;;7.30;65.12
1652;BME280;823;49.028;8.454;2022-12-04T21:50:05;100203.25;;;7.26;65.21
1652;BME280;823;49.028;8.454;2022-12-04T21:55:06;100211.88;;;7.24;65.22
1652;BME280;823;49.028;8.454;2022-12-04T22:00:07;100216.19;;;7.23;65.22
1652;BME280;823;49.028;8.454;2022-12-04T22:05:08;100211.91;;;7.22;65.21
1652;BME280;823;49.028;8.454;2022-12-04T22:10:08;100229.16;;;7.17;65.51
1652;BME280;823;49.028;8.454;2022-12-04T22:15:09;100240.41;;;7.14;65.15
1652;BME280;823;49.028;8.454;2022-12-04T22:20:09;100251.91;;;6.96;65.79
1652;BME280;823;49.028;8.454;2022-12-04T22:25:10;100244.13;;;6.99;65.67
1652;BME280;823;49.028;8.454;2022-12-04T22:30:11;100251.66;;;7.07;65.42
1652;BME280;823;49.028;8.454;2022-12-04T22:35:11;100249.84;;;7.12;65.55
1652;BME280;823;49.028;8.454;2022-12-04T22:40:13;100258.25;;;7.21;65.51
1652;BME280;823;49.028;8.454;2022-12-04T22:45:13;100270.97;;;7.27;65.70
1652;BME280;823;49.028;8.454;2022-12-04T22:50:14;100273.50;;;7.30;65.23
1652;BME280;823;49.028;8.454;2022-12-04T22:55:14;100273.47;;;7.31;65.41
1652;BME280;823;49.028;8.454;2022-12-04T23:00:14;100264.81;;;7.36;65.32
1652;BME280;823;49.028;8.454;2022-12-04T23:05:15;100262.16;;;7.39;65.42
1652;BME280;823;49.028;8.454;2022-12-04T23:10:15;100259.50;;;7.42;65.02
1652;BME280;823;49.028;8.454;2022-12-04T23:15:15;100268.13;;;7.41;65.39
1652;BME280;823;49.028;8.454;2022-12-04T23:20:16;100266.34;;;7.43;65.07
1652;BME280;823;49.028;8.454;2022-12-04T23:25:17;100266.44;;;7.40;64.93
1652;BME280;823;49.028;8.454;2022-12-04T23:30:17;100286.16;;;7.41;65.32
1652;BME280;823;49.028;8.454;2022-12-04T23:35:17;100296.34;;;7.45;65.24
1652;BME280;823;49.028;8.454;2022-12-04T23:40:18;100298.06;;;7.45;65.22
1652;BME280;823;49.028;8.454;2022-12-04T23:45:18;100305.69;;;7.49;65.35
1652;BME280;823;49.028;8.454;2022-12-04T23:50:19;100310.84;;;7.48;64.93
1652;BME280;823;49.028;8.454;2022-12-04T23:55:19;100314.34;;;7.45;64.93
